AEP2097 LEIG-LEIG
Flight info
| Callsign | AEP2097 |
|---|---|
| Flight time | 0h 11m |
| Altitude | 3000 |
| Route | VFR |
| Aircraft | C172/L-SDE3FGHIRWY/2000 |
Departure
| Time | 2026-05-04 17:45 |
|---|---|
| Airport | Igualada/Odena Airfield (LEIG) |
Arrival
| Time | 2026-05-04 17:56 |
|---|---|
| Airport | Igualada/Odena Airfield (LEIG) |
| Time | Latitude | Longitude | Altitude | Speed | Heading |
|---|---|---|---|---|---|
| 2026-05-04 17:36 | 41.58655 | 1.65160 | 1102 ft | 0 kts | 160° |
| 2026-05-04 17:44 | 41.58654 | 1.65161 | 1099 ft | 2 kts | 161° |
| 2026-05-04 17:44 | 41.58460 | 1.65261 | 1088 ft | 57 kts | 159° |
| 2026-05-04 17:44 | 41.58040 | 1.65538 | 1200 ft | 73 kts | 149° |
| 2026-05-04 17:45 | 41.57700 | 1.66084 | 1419 ft | 77 kts | 128° |
| 2026-05-04 17:45 | 41.57394 | 1.66720 | 1639 ft | 84 kts | 125° |
| 2026-05-04 17:45 | 41.57076 | 1.67392 | 1884 ft | 87 kts | 129° |
| 2026-05-04 17:45 | 41.56854 | 1.68135 | 2187 ft | 91 kts | 103° |
| 2026-05-04 17:46 | 41.56963 | 1.68986 | 2395 ft | 103 kts | 66° |
| 2026-05-04 17:46 | 41.57362 | 1.69740 | 2638 ft | 105 kts | 40° |
| 2026-05-04 17:46 | 41.57992 | 1.70358 | 2699 ft | 117 kts | 34° |
| 2026-05-04 17:46 | 41.58758 | 1.70887 | 2718 ft | 130 kts | 19° |
| 2026-05-04 17:47 | 41.59583 | 1.71215 | 2776 ft | 117 kts | 14° |
| 2026-05-04 17:47 | 41.60372 | 1.71508 | 2822 ft | 119 kts | 2° |
| 2026-05-04 17:47 | 41.61133 | 1.71333 | 2866 ft | 107 kts | 330° |
| 2026-05-04 17:47 | 41.61691 | 1.70736 | 2887 ft | 100 kts | 303° |
| 2026-05-04 17:48 | 41.62074 | 1.69982 | 2894 ft | 98 kts | 294° |
| 2026-05-04 17:48 | 41.62348 | 1.69155 | 2864 ft | 95 kts | 282° |
| 2026-05-04 17:48 | 41.62532 | 1.68335 | 2877 ft | 93 kts | 276° |
| 2026-05-04 17:48 | 41.62627 | 1.67428 | 2746 ft | 101 kts | 274° |
| 2026-05-04 17:49 | 41.62578 | 1.66527 | 2638 ft | 97 kts | 248° |
| 2026-05-04 17:49 | 41.62284 | 1.65666 | 2409 ft | 105 kts | 233° |
| 2026-05-04 17:49 | 41.61768 | 1.65098 | 2233 ft | 93 kts | 211° |
| 2026-05-04 17:49 | 41.61193 | 1.64788 | 2066 ft | 86 kts | 196° |
| 2026-05-04 17:50 | 41.60604 | 1.64677 | 1856 ft | 86 kts | 184° |
| 2026-05-04 17:50 | 41.60002 | 1.64644 | 1636 ft | 88 kts | 178° |
| 2026-05-04 17:50 | 41.59390 | 1.64812 | 1352 ft | 91 kts | 167° |
| 2026-05-04 17:50 | 41.58808 | 1.65081 | 1130 ft | 85 kts | 161° |
| 2026-05-04 17:51 | 41.58332 | 1.65319 | 1079 ft | 66 kts | 154° |
| 2026-05-04 17:51 | 41.57860 | 1.65586 | 1185 ft | 75 kts | 160° |
| 2026-05-04 17:51 | 41.57410 | 1.65987 | 1372 ft | 80 kts | 142° |
| 2026-05-04 17:51 | 41.56973 | 1.66488 | 1686 ft | 80 kts | 140° |
| 2026-05-04 17:52 | 41.56725 | 1.67171 | 1903 ft | 95 kts | 115° |
| 2026-05-04 17:52 | 41.56745 | 1.67986 | 2332 ft | 98 kts | 50° |
| 2026-05-04 17:52 | 41.57345 | 1.68583 | 2430 ft | 111 kts | 32° |
| 2026-05-04 17:52 | 41.58091 | 1.68931 | 2433 ft | 118 kts | 9° |
| 2026-05-04 17:53 | 41.58864 | 1.69099 | 2649 ft | 105 kts | 357° |
| 2026-05-04 17:53 | 41.59603 | 1.69043 | 2729 ft | 108 kts | 349° |
| 2026-05-04 17:53 | 41.60325 | 1.68837 | 2848 ft | 102 kts | 336° |
| 2026-05-04 17:53 | 41.60979 | 1.68507 | 2868 ft | 104 kts | 323° |
| 2026-05-04 17:54 | 41.61567 | 1.67889 | 2601 ft | 115 kts | 307° |
| 2026-05-04 17:54 | 41.61890 | 1.66958 | 2428 ft | 108 kts | 276° |
| 2026-05-04 17:54 | 41.61873 | 1.66016 | 2332 ft | 98 kts | 255° |
| 2026-05-04 17:54 | 41.61733 | 1.65489 | 2339 ft | 85 kts | 236° |
| 2026-05-04 17:55 | 41.61144 | 1.64905 | 2124 ft | 82 kts | 213° |
| 2026-05-04 17:55 | 41.60650 | 1.64659 | 1866 ft | 71 kts | 187° |
| 2026-05-04 17:55 | 41.60178 | 1.64663 | 1646 ft | 66 kts | 182° |
| 2026-05-04 17:55 | 41.59718 | 1.64744 | 1454 ft | 68 kts | 174° |
| 2026-05-04 17:56 | 41.59240 | 1.64889 | 1270 ft | 71 kts | 166° |
| 2026-05-04 17:56 | 41.58930 | 1.65026 | 1163 ft | 70 kts | 163° |
| 2026-05-04 17:56 | 41.58542 | 1.65216 | 1094 ft | 47 kts | 159° |
| 2026-05-04 17:56 | 41.58234 | 1.65377 | 1080 ft | 59 kts | 163° |
| 2026-05-04 17:57 | 41.57839 | 1.65646 | 1148 ft | 70 kts | 152° |
| 2026-05-04 17:57 | 41.57427 | 1.66060 | 1328 ft | 75 kts | 146° |
| 2026-05-04 17:57 | 41.57027 | 1.66531 | 1587 ft | 78 kts | 139° |